createdAt,value
2023-01-10T00:08:05.765Z,26.25
2023-01-10T00:11:32.241Z,23.50
2023-01-10T00:21:09.046Z,21.50
2023-01-10T00:48:07.382Z,10.00
2023-01-10T00:58:09.951Z,7.50
2023-01-10T01:07:31.001Z,3.00
2023-01-10T01:10:16.623Z,4.25
2023-01-10T01:12:43.532Z,4.00
2023-01-10T01:15:10.673Z,2.75
2023-01-10T01:17:37.558Z,2.00
2023-01-10T01:20:04.904Z,3.00
2023-01-10T01:22:31.883Z,4.00
2023-01-10T01:24:58.803Z,3.25
2023-01-10T01:27:25.729Z,7.75
2023-01-10T01:29:52.652Z,15.25
2023-01-10T01:32:19.636Z,12.50
2023-01-10T01:34:46.518Z,11.00
2023-01-10T01:37:13.392Z,8.00
2023-01-10T01:39:40.280Z,7.75
2023-01-10T01:42:07.364Z,9.50
2023-01-10T01:44:39.710Z,11.75
2023-01-10T01:47:13.516Z,15.50
2023-01-10T01:49:45.294Z,13.00
2023-01-10T01:52:19.336Z,16.00
2023-01-10T01:54:46.729Z,14.50
2023-01-10T01:57:17.852Z,16.00
2023-01-10T01:59:47.433Z,19.00
2023-01-10T02:02:19.571Z,15.75
2023-01-10T02:04:54.907Z,17.00
2023-01-10T02:07:24.358Z,16.00
2023-01-10T02:10:18.446Z,17.00
2023-01-10T02:13:08.964Z,21.25
2023-01-10T02:15:53.120Z,16.25
2023-01-10T02:18:35.961Z,13.00
2023-01-10T02:21:47.716Z,16.75
2023-01-10T02:25:02.715Z,19.00
2023-01-10T02:28:12.348Z,16.00
2023-01-10T02:30:50.174Z,12.25
2023-01-10T02:33:38.344Z,14.00
2023-01-10T02:36:50.130Z,14.00
2023-01-10T02:39:17.150Z,20.75
2023-01-10T02:42:07.265Z,16.50
2023-01-10T02:44:50.714Z,17.25
2023-01-10T02:47:17.598Z,16.75
2023-01-10T02:49:47.473Z,11.50
2023-01-10T02:52:21.264Z,8.75
2023-01-10T02:54:50.073Z,18.00
2023-01-10T02:57:47.911Z,20.50
2023-01-10T03:00:32.558Z,16.25
2023-01-10T03:03:10.105Z,16.00
2023-01-10T03:05:55.358Z,17.50
2023-01-10T03:08:29.074Z,13.75
2023-01-10T03:11:02.964Z,20.50
2023-01-10T03:13:50.067Z,20.25
2023-01-10T03:16:21.298Z,15.00
2023-01-10T03:18:54.304Z,16.50
2023-01-10T03:21:23.948Z,19.25
2023-01-10T03:23:56.621Z,21.25
2023-01-10T03:26:35.433Z,18.75
2023-01-10T03:29:08.155Z,16.25
2023-01-10T03:31:57.704Z,16.50
2023-01-10T03:34:25.837Z,16.00
2023-01-10T03:37:19.317Z,13.75
2023-01-10T03:40:00.883Z,16.00
2023-01-10T03:43:06.969Z,17.50
2023-01-10T03:45:48.758Z,14.50
2023-01-10T03:48:17.267Z,10.75
2023-01-10T03:50:45.720Z,14.75
2023-01-10T03:53:15.715Z,12.00
2023-01-10T03:55:45.020Z,16.25
2023-01-10T03:58:11.951Z,10.50
2023-01-10T04:00:39.728Z,11.00
2023-01-10T04:03:06.672Z,11.00
2023-01-10T04:05:33.588Z,10.25
2023-01-10T04:08:00.564Z,9.50
2023-01-10T04:10:29.615Z,7.00
2023-01-10T04:13:01.645Z,8.75
2023-01-10T04:15:29.182Z,6.00
2023-01-10T04:17:56.705Z,7.00
2023-01-10T04:20:26.815Z,9.25
2023-01-10T04:22:54.987Z,7.00
2023-01-10T04:25:23.481Z,5.00
2023-01-10T04:27:51.646Z,7.00
2023-01-10T04:30:20.430Z,5.00
2023-01-10T04:32:48.480Z,3.00
2023-01-10T04:35:15.719Z,2.75
2023-01-10T04:37:43.733Z,3.75
2023-01-10T04:40:11.329Z,2.00
2023-01-10T04:42:38.227Z,2.25
2023-01-10T04:45:05.964Z,2.00
2023-01-10T04:47:32.972Z,3.00
2023-01-10T04:49:59.889Z,2.00
2023-01-10T04:52:28.445Z,2.25
2023-01-10T04:54:55.440Z,3.00
2023-01-10T04:57:22.467Z,2.00
2023-01-10T04:59:49.387Z,2.25
2023-01-10T05:02:17.001Z,2.00
2023-01-10T05:04:43.970Z,2.25
2023-01-10T05:07:12.482Z,2.25
2023-01-10T05:09:39.446Z,3.00
2023-01-10T05:12:06.553Z,3.00
2023-01-10T05:14:33.541Z,5.25
2023-01-10T05:17:00.448Z,5.00
2023-01-10T05:19:27.383Z,6.50
2023-01-10T05:21:54.281Z,5.00
2023-01-10T05:24:21.276Z,7.00
2023-01-10T05:26:48.276Z,6.00
2023-01-10T05:29:15.254Z,6.75
2023-01-10T05:31:42.554Z,5.00
2023-01-10T05:34:14.276Z,7.00
2023-01-10T05:36:41.212Z,6.25
2023-01-10T05:39:08.292Z,7.50
2023-01-10T05:41:35.194Z,6.00
2023-01-10T05:44:02.171Z,11.00
2023-01-10T05:46:29.733Z,8.00
2023-01-10T05:48:56.664Z,11.75
2023-01-10T05:51:23.590Z,15.00
2023-01-10T05:53:50.522Z,11.25
2023-01-10T05:56:17.689Z,15.25
2023-01-10T05:58:47.311Z,12.75
2023-01-10T06:01:16.902Z,12.00
2023-01-10T06:03:44.077Z,10.50
2023-01-10T06:06:11.125Z,13.50
2023-01-10T06:08:38.097Z,10.50
2023-01-10T06:11:05.907Z,12.00
2023-01-10T06:13:33.621Z,11.25
2023-01-10T06:16:00.808Z,7.00
2023-01-10T06:18:27.754Z,12.75
2023-01-10T06:20:54.747Z,15.50
2023-01-10T06:23:21.889Z,13.50
2023-01-10T06:25:48.836Z,15.25
2023-01-10T06:28:15.827Z,19.00
2023-01-10T06:30:43.728Z,19.00
2023-01-10T06:33:12.188Z,15.50
2023-01-10T06:35:39.176Z,13.75
2023-01-10T06:38:06.304Z,10.75
2023-01-10T06:40:33.301Z,8.50
2023-01-10T06:43:00.491Z,9.00
2023-01-10T06:45:27.442Z,11.50
2023-01-10T06:47:54.441Z,6.75
2023-01-10T06:50:22.054Z,14.00
2023-01-10T06:53:05.584Z,10.75
2023-01-10T06:55:32.985Z,18.50
2023-01-10T06:58:04.874Z,15.00
2023-01-10T07:00:32.073Z,15.00
2023-01-10T07:03:02.244Z,16.00
2023-01-10T07:05:30.675Z,16.00
2023-01-10T07:07:59.016Z,17.00
2023-01-10T07:10:26.001Z,12.00
2023-01-10T07:12:55.488Z,17.00
2023-01-10T17:33:54.282Z,25.00
2023-01-10T17:36:39.641Z,28.00
2023-01-10T17:51:44.032Z,27.25
2023-01-10T17:54:39.962Z,24.00
2023-01-10T17:57:46.994Z,21.25
2023-01-10T18:13:06.836Z,24.25
2023-01-10T18:28:46.012Z,18.25
2023-01-10T18:31:22.332Z,28.00
2023-01-10T18:34:16.831Z,25.00
2023-01-10T18:36:47.490Z,27.00
2023-01-10T18:40:37.384Z,25.00
2023-01-10T18:43:05.820Z,25.00
2023-01-10T18:45:52.769Z,23.25
2023-01-10T18:49:19.545Z,24.25
2023-01-10T18:56:15.608Z,21.50
2023-01-10T19:20:18.949Z,25.00
2023-01-10T19:22:53.560Z,25.67
2023-01-10T19:25:40.534Z,25.00
2023-01-10T19:28:32.288Z,21.75
2023-01-10T19:31:53.708Z,25.00
2023-01-10T19:34:33.376Z,26.67
2023-01-10T19:37:05.100Z,27.33
2023-01-10T19:47:13.673Z,25.00
2023-01-10T19:53:07.049Z,24.25
2023-01-10T19:56:55.136Z,19.75
2023-01-10T19:59:54.678Z,19.00
2023-01-10T20:03:21.369Z,20.75
2023-01-10T20:06:03.908Z,25.67
2023-01-10T20:08:42.102Z,20.00
2023-01-10T20:12:04.091Z,20.75
2023-01-10T20:27:18.384Z,30.67
2023-01-10T20:33:53.354Z,25.00
2023-01-10T20:39:58.308Z,23.00
2023-01-10T20:50:23.412Z,27.33
2023-01-10T20:53:54.550Z,26.00
2023-01-10T20:57:47.475Z,15.75
2023-01-10T21:00:39.217Z,22.75
2023-01-10T21:12:07.420Z,21.00
2023-01-10T21:19:28.436Z,14.50
2023-01-10T21:29:53.600Z,24.00
2023-01-10T21:33:11.558Z,16.00
2023-01-10T21:36:29.336Z,13.50
2023-01-10T21:39:35.758Z,14.00
2023-01-10T21:46:27.095Z,25.00
2023-01-10T21:49:50.975Z,24.25
2023-01-10T21:59:35.444Z,25.00
2023-01-10T22:02:55.081Z,21.00
2023-01-10T22:09:04.548Z,17.50
2023-01-10T22:18:46.753Z,6.00
2023-01-10T22:22:09.509Z,6.00
2023-01-10T22:25:24.988Z,3.00
2023-01-10T22:31:45.075Z,6.25
2023-01-10T22:54:24.727Z,7.75
2023-01-10T23:00:44.797Z,11.25
2023-01-10T23:03:56.330Z,11.00
2023-01-10T23:06:52.044Z,12.00
2023-01-10T23:09:47.127Z,20.50
2023-01-10T23:12:52.622Z,22.25
2023-01-10T23:19:13.445Z,19.25
2023-01-10T23:25:51.062Z,10.75
2023-01-10T23:28:59.679Z,17.50
2023-01-10T23:35:33.161Z,25.25
2023-01-10T23:38:00.511Z,21.00
2023-01-10T23:40:27.504Z,15.00
2023-01-10T23:42:54.406Z,22.25
2023-01-10T23:45:21.244Z,22.00
2023-01-10T23:47:48.073Z,16.75
2023-01-10T23:50:15.122Z,15.00
2023-01-10T23:52:42.018Z,11.25
2023-01-10T23:55:11.559Z,12.50
2023-01-10T23:57:38.534Z,22.25
